Terminal Aerodrome Forecast
Issued by NWS Indianapolis, IN

Home | Current Version | Previous Version | Text Only | Print | Product List | Glossary On
Versions: 1 2 3 4 5 6 7 8 9 10 11 12 13 14 15 16 17 18 19 20 21 22 23 24 25 26 27
500
FTUS43 KIND 081727
TAFIND
TAF
KIND 081727Z 0818/0924 28016G25KT P6SM BKN030
     FM082300 29015G23KT P6SM OVC030
     FM090300 28011KT P6SM BKN015
     FM090500 28010KT P6SM BKN020
     FM091700 28008KT P6SM BKN035=

USA.gov is the U.S. government's official web portal to all federal, state and local government web resources and services.